Alessandro F — IBVQ — position and weather

sailwx.info

Track history (hours):
 
Tides and Currents Weather Stations Pressure Air Temp Water Temp Dewpoint Dewpoint Depression Visibility Wind Speed Wind Dir Waves Ship Positions

Alessandro F

Last reported at 2016-Jul-01 01:29 UTC. Time now 2016-Jul-01 13:33 UTC.
Position N 36°00' W 000°05'.

Length 100 m; draft 5.4 m.

Type: Ship. MMSI: 247046400.

Date/timePositionNaut miles runAvg speedWind from/ knotsBaromVisibWave heightAir tempDewpointWater temp
2016-Jul-01 01:29N 36°00' W 000°05'0 0.4
2016-Jul-01 00:33N 36°00' W 000°05'0 0.3
2016-Jun-30 23:33N 36°01' W 000°05'0 0.3
2016-Jun-30 22:33N 36°01' W 000°05'0 0.4
2016-Jun-30 21:33N 36°01' W 000°05'3 3.1
2016-Jun-30 20:33N 35°59' W 000°08'1110.7
2016-Jun-30 19:32N 36°10' W 000°03'2512.4
2016-Jun-30 17:32N 36°26' E 000°19'1212.1
2016-Jun-30 16:33N 36°34' E 000°30'1212.2
2016-Jun-30 15:33N 36°41' E 000°43'1212.5
2016-Jun-30 14:33N 36°50' E 000°53'1212.0
2016-Jun-30 13:33N 36°58' E 001°05'1212.2
2016-Jun-30 12:33N 37°07' E 001°15'1312.3
2016-Jun-30 11:32N 37°16' E 001°26'5412.7
2016-Jun-30 07:16N 37°52' E 002°16'1012.9
2016-Jun-30 06:30N 37°59' E 002°26'1312.8
2016-Jun-30 05:31N 38°08' E 002°37'1312.9
2016-Jun-30 04:33N 38°16' E 002°49'3712.2
2016-Jun-30 01:30N 38°42' E 003°24'1712.2
2016-Jun-30 00:06N 38°53' E 003°40'1012.4
2016-Jun-29 23:19N 38°60' E 003°49'1012.4
2016-Jun-29 22:29N 39°07' E 003°59'1212.7
2016-Jun-29 21:33N 39°15' E 004°10'21612.6
2016-Jun-29 04:20N 41°55' E 007°20'1012.8
2016-Jun-29 03:33N 42°03' E 007°29'1312.8
2016-Jun-29 02:30N 42°13' E 007°41'3912.6
2016-Jun-28 23:27N 42°42' E 008°15'4711.9
2016-Jun-28 19:30N 43°09' E 009°08'1211.7
2016-Jun-28 18:29N 43°10' E 009°24'910.2
2016-Jun-28 17:33N 43°06' E 009°36'1212.0
2016-Jun-28 16:32N 42°54' E 009°40'1212.0
2016-Jun-28 15:33N 42°42' E 009°41'10 9.7
2016-Jun-28 14:33N 42°33' E 009°38'  
2016-Jun-26 07:33N 38°12' E 011°48'11611.7
2016-Jun-25 21:33N 36°47' E 013°28'2611.4
2016-Jun-25 19:16N 36°29' E 013°52'1012.3
2016-Jun-25 18:29N 36°23' E 014°01'1212.4
2016-Jun-25 17:32N 36°15' E 014°11'1212.1
2016-Jun-25 16:33N 36°07' E 014°22'1212.2
2016-Jun-25 15:33N 35°59' E 014°33'1010.1
2016-Jun-25 14:33N 35°49' E 014°36'27 0.8
2016-Jun-24 04:05N 36°15' E 014°44'611.8
2016-Jun-24 03:32N 36°21' E 014°47'9 9.7
2016-Jun-24 02:33N 36°23' E 014°35'1111.3
2016-Jun-24 01:33N 36°26' E 014°21'1110.9
2016-Jun-24 00:33N 36°29' E 014°09'1110.6
2016-Jun-23 23:32N 36°32' E 013°56'41411.4
2016-Jun-22 11:11N 42°55' E 010°28'812.5
2016-Jun-22 10:33N 42°60' E 010°20'1313.3
2016-Jun-22 09:33N 43°13' E 010°15'1313.2
2016-Jun-22 08:33N 43°26' E 010°12'8 8.2
2016-Jun-22 07:33N 43°33' E 010°18'2 2.3
2016-Jun-22 06:32N 43°35' E 010°19'0 0.0
2016-Jun-22 05:34N 43°35' E 010°19'0 0.0
2016-Jun-22 04:34N 43°35' E 010°19'0 0.0
2016-Jun-22 03:34N 43°35' E 010°19'0 0.0
2016-Jun-22 02:33N 43°35' E 010°19'0 0.0
2016-Jun-22 01:34N 43°35' E 010°19'0 0.0
2016-Jun-22 00:34N 43°35' E 010°19'0 0.0
2016-Jun-21 23:34N 43°35' E 010°19'0 0.0
2016-Jun-21 22:33N 43°35' E 010°19'0 0.0
2016-Jun-21 21:34N 43°35' E 010°19'0 0.0
2016-Jun-21 20:34N 43°35' E 010°19'0 0.0
2016-Jun-21 19:34N 43°35' E 010°19'0 0.0
2016-Jun-21 18:34N 43°35' E 010°19'0 0.0
2016-Jun-21 17:33N 43°35' E 010°19'0 0.0
2016-Jun-21 16:34N 43°35' E 010°19'0 0.0
2016-Jun-21 15:33N 43°35' E 010°19'0 0.0
2016-Jun-21 14:34N 43°35' E 010°19'1 1.1
2016-Jun-21 13:34N 43°34' E 010°18'5 5.4
2016-Jun-21 12:33N 43°29' E 010°15'0 0.2
2016-Jun-21 11:34N 43°29' E 010°15'1 1.4
2016-Jun-21 10:34N 43°29' E 010°13'1110.7
2016-Jun-21 09:33N 43°19' E 010°13'1211.9
2016-Jun-21 08:34N 43°07' E 010°17'1111.4
2016-Jun-21 07:33N 42°57' E 010°23'2211.2
2016-Jun-21 05:34N 42°37' E 010°38'1812.0
2016-Jun-21 04:05N 42°20' E 010°45'  
Track history (hours):
 
Tides and Currents Weather Stations Pressure Air Temp Water Temp Dewpoint Dewpoint Depression Visibility Wind Speed Wind Dir Waves Ship Positions

Alessandro F

Last reported at 2016-Jul-01 01:29 UTC. Time now 2016-Jul-01 13:33 UTC.
Position N 36°00' W 000°05'.

Length 100 m; draft 5.4 m.

Type: Ship. MMSI: 247046400.

Date/timePositionNaut miles runAvg speedWind from/ knotsBaromVisibWave heightAir tempDewpointWater temp
2016-Jul-01 01:29N 36°00' W 000°05'0 0.4
2016-Jul-01 00:33N 36°00' W 000°05'0 0.3
2016-Jun-30 23:33N 36°01' W 000°05'0 0.3
2016-Jun-30 22:33N 36°01' W 000°05'0 0.4
2016-Jun-30 21:33N 36°01' W 000°05'3 3.1
2016-Jun-30 20:33N 35°59' W 000°08'1110.7
2016-Jun-30 19:32N 36°10' W 000°03'2512.4
2016-Jun-30 17:32N 36°26' E 000°19'1212.1
2016-Jun-30 16:33N 36°34' E 000°30'1212.2
2016-Jun-30 15:33N 36°41' E 000°43'1212.5
2016-Jun-30 14:33N 36°50' E 000°53'1212.0
2016-Jun-30 13:33N 36°58' E 001°05'1212.2
2016-Jun-30 12:33N 37°07' E 001°15'1312.3
2016-Jun-30 11:32N 37°16' E 001°26'5412.7
2016-Jun-30 07:16N 37°52' E 002°16'1012.9
2016-Jun-30 06:30N 37°59' E 002°26'1312.8
2016-Jun-30 05:31N 38°08' E 002°37'1312.9
2016-Jun-30 04:33N 38°16' E 002°49'3712.2
2016-Jun-30 01:30N 38°42' E 003°24'1712.2
2016-Jun-30 00:06N 38°53' E 003°40'1012.4
2016-Jun-29 23:19N 38°60' E 003°49'1012.4
2016-Jun-29 22:29N 39°07' E 003°59'1212.7
2016-Jun-29 21:33N 39°15' E 004°10'21612.6
2016-Jun-29 04:20N 41°55' E 007°20'1012.8
2016-Jun-29 03:33N 42°03' E 007°29'1312.8
2016-Jun-29 02:30N 42°13' E 007°41'3912.6
2016-Jun-28 23:27N 42°42' E 008°15'4711.9
2016-Jun-28 19:30N 43°09' E 009°08'1211.7
2016-Jun-28 18:29N 43°10' E 009°24'910.2
2016-Jun-28 17:33N 43°06' E 009°36'1212.0
2016-Jun-28 16:32N 42°54' E 009°40'1212.0
2016-Jun-28 15:33N 42°42' E 009°41'10 9.7
2016-Jun-28 14:33N 42°33' E 009°38'  
2016-Jun-26 07:33N 38°12' E 011°48'11611.7
2016-Jun-25 21:33N 36°47' E 013°28'2611.4
2016-Jun-25 19:16N 36°29' E 013°52'1012.3
2016-Jun-25 18:29N 36°23' E 014°01'1212.4
2016-Jun-25 17:32N 36°15' E 014°11'1212.1
2016-Jun-25 16:33N 36°07' E 014°22'1212.2
2016-Jun-25 15:33N 35°59' E 014°33'1010.1
2016-Jun-25 14:33N 35°49' E 014°36'27 0.8
2016-Jun-24 04:05N 36°15' E 014°44'611.8
2016-Jun-24 03:32N 36°21' E 014°47'9 9.7
2016-Jun-24 02:33N 36°23' E 014°35'1111.3
2016-Jun-24 01:33N 36°26' E 014°21'1110.9
2016-Jun-24 00:33N 36°29' E 014°09'1110.6
2016-Jun-23 23:32N 36°32' E 013°56'41411.4
2016-Jun-22 11:11N 42°55' E 010°28'812.5
2016-Jun-22 10:33N 42°60' E 010°20'1313.3
2016-Jun-22 09:33N 43°13' E 010°15'1313.2
2016-Jun-22 08:33N 43°26' E 010°12'8 8.2
2016-Jun-22 07:33N 43°33' E 010°18'2 2.3
2016-Jun-22 06:32N 43°35' E 010°19'0 0.0
2016-Jun-22 05:34N 43°35' E 010°19'0 0.0
2016-Jun-22 04:34N 43°35' E 010°19'0 0.0
2016-Jun-22 03:34N 43°35' E 010°19'0 0.0
2016-Jun-22 02:33N 43°35' E 010°19'0 0.0
2016-Jun-22 01:34N 43°35' E 010°19'0 0.0
2016-Jun-22 00:34N 43°35' E 010°19'0 0.0
2016-Jun-21 23:34N 43°35' E 010°19'0 0.0
2016-Jun-21 22:33N 43°35' E 010°19'0 0.0
2016-Jun-21 21:34N 43°35' E 010°19'0 0.0
2016-Jun-21 20:34N 43°35' E 010°19'0 0.0
2016-Jun-21 19:34N 43°35' E 010°19'0 0.0
2016-Jun-21 18:34N 43°35' E 010°19'0 0.0
2016-Jun-21 17:33N 43°35' E 010°19'0 0.0
2016-Jun-21 16:34N 43°35' E 010°19'0 0.0
2016-Jun-21 15:33N 43°35' E 010°19'0 0.0
2016-Jun-21 14:34N 43°35' E 010°19'1 1.1
2016-Jun-21 13:34N 43°34' E 010°18'5 5.4
2016-Jun-21 12:33N 43°29' E 010°15'0 0.2
2016-Jun-21 11:34N 43°29' E 010°15'1 1.4
2016-Jun-21 10:34N 43°29' E 010°13'1110.7
2016-Jun-21 09:33N 43°19' E 010°13'1211.9
2016-Jun-21 08:34N 43°07' E 010°17'1111.4
2016-Jun-21 07:33N 42°57' E 010°23'2211.2
2016-Jun-21 05:34N 42°37' E 010°38'1812.0
2016-Jun-21 04:05N 42°20' E 010°45'  

Dump ship's entire track history